createdAt,value
2022-08-18T00:01:22.541Z,100710.44
2022-08-18T00:03:55.902Z,100670.09
2022-08-18T00:06:28.369Z,100703.94
2022-08-18T00:08:59.995Z,100696.00
2022-08-18T00:11:41.044Z,100696.41
2022-08-18T00:14:14.592Z,100694.34
2022-08-18T00:16:52.058Z,100696.00
2022-08-18T00:19:20.621Z,100706.44
2022-08-18T00:22:09.160Z,100709.16
2022-08-18T00:24:48.086Z,100700.84
2022-08-18T00:27:23.302Z,100645.63
2022-08-18T00:29:54.611Z,100703.09
2022-08-18T00:32:25.279Z,100658.06
2022-08-18T00:34:54.387Z,100671.06
2022-08-18T00:37:23.724Z,100678.09
2022-08-18T00:39:54.466Z,100676.56
2022-08-18T00:42:29.907Z,100661.34
2022-08-18T00:45:01.905Z,100647.13
2022-08-18T00:47:42.078Z,100646.66
2022-08-18T00:50:17.542Z,100608.66
2022-08-18T00:52:50.633Z,100635.84
2022-08-18T00:55:23.480Z,100635.00
2022-08-18T00:57:55.410Z,100595.66
2022-08-18T01:00:24.026Z,100632.69
2022-08-18T01:02:57.746Z,100636.69
2022-08-18T01:05:34.029Z,100640.81
2022-08-18T01:08:03.059Z,100643.38
2022-08-18T01:10:35.411Z,100597.91
2022-08-18T01:13:03.850Z,100640.56
2022-08-18T01:15:32.162Z,100625.53
2022-08-18T01:18:23.435Z,100579.09
2022-08-18T01:21:17.096Z,100547.47
2022-08-18T01:23:48.815Z,100620.69
2022-08-18T01:26:18.262Z,100450.13
2022-08-18T01:28:49.605Z,100592.63
2022-08-18T01:31:37.971Z,100454.31
2022-08-18T01:34:07.689Z,100618.81
2022-08-18T01:36:38.533Z,100603.88
2022-08-18T01:39:10.354Z,100564.56
2022-08-18T01:41:40.937Z,100605.31
2022-08-18T01:44:11.739Z,100595.72
2022-08-18T01:46:42.978Z,100588.19
2022-08-18T01:49:13.447Z,100589.34
2022-08-18T01:51:42.857Z,100593.84
2022-08-18T01:54:15.993Z,100592.38
2022-08-18T01:56:44.805Z,100580.97
2022-08-18T01:59:14.889Z,100576.88
2022-08-18T02:01:49.547Z,100570.44
2022-08-18T02:04:40.571Z,100577.06
2022-08-18T02:07:11.745Z,100584.25
2022-08-18T02:09:43.689Z,100575.31
2022-08-18T02:12:12.681Z,100566.75
2022-08-18T02:14:41.373Z,100563.03
2022-08-18T02:17:12.661Z,100369.66
2022-08-18T02:19:44.116Z,100564.69
2022-08-18T02:22:15.445Z,100528.72
2022-08-18T02:24:45.843Z,100541.59
2022-08-18T02:27:16.328Z,100553.63
2022-08-18T02:29:44.845Z,100557.28
2022-08-18T02:32:13.189Z,100548.97
2022-08-18T02:34:42.978Z,100540.22
2022-08-18T02:37:15.002Z,100527.09
2022-08-18T02:39:45.340Z,100507.22
2022-08-18T02:42:16.497Z,100529.34
2022-08-18T02:44:44.961Z,100520.47
2022-08-18T02:47:13.278Z,100536.47
2022-08-18T02:49:41.653Z,100534.34
2022-08-18T02:52:10.479Z,100520.59
2022-08-18T02:54:39.236Z,100515.00
2022-08-18T02:57:10.767Z,100522.53
2022-08-18T02:59:40.161Z,100518.97
2022-08-18T03:02:10.317Z,100523.56
2022-08-18T03:04:38.837Z,100515.44
2022-08-18T03:07:08.785Z,100522.38
2022-08-18T03:09:37.613Z,100511.72
2022-08-18T03:12:07.368Z,100532.75
2022-08-18T03:14:40.154Z,100541.69
2022-08-18T03:17:09.807Z,100530.44
2022-08-18T03:19:38.657Z,100526.63
2022-08-18T03:22:28.112Z,100489.41
2022-08-18T03:24:57.837Z,100530.50
2022-08-18T03:27:26.634Z,100534.03
2022-08-18T03:29:56.622Z,100540.53
2022-08-18T03:32:27.075Z,100540.16
2022-08-18T03:34:55.468Z,100530.44
2022-08-18T03:37:23.741Z,100526.31
2022-08-18T03:39:53.040Z,100535.50
2022-08-18T03:42:21.357Z,100534.25
2022-08-18T03:44:49.563Z,100534.22
2022-08-18T03:47:19.499Z,100538.53
2022-08-18T03:49:49.014Z,100535.19
2022-08-18T03:52:17.378Z,100541.25
2022-08-18T03:54:45.667Z,100521.31
2022-08-18T03:57:14.614Z,100522.78
2022-08-18T03:59:43.815Z,100524.84
2022-08-18T04:02:13.036Z,100531.06
2022-08-18T04:04:43.240Z,100528.19
2022-08-18T04:07:17.337Z,100533.78
2022-08-18T04:09:47.135Z,100537.06
2022-08-18T04:12:17.655Z,100355.31
2022-08-18T04:14:49.484Z,100532.56
2022-08-18T04:17:20.438Z,100528.00
2022-08-18T04:19:50.257Z,100526.69
2022-08-18T04:22:18.672Z,100529.16
2022-08-18T04:24:49.759Z,100516.59
2022-08-18T04:27:19.359Z,100502.44
2022-08-18T04:29:47.947Z,100497.13
2022-08-18T04:32:16.265Z,100496.34
2022-08-18T04:34:44.709Z,100488.44
2022-08-18T04:37:15.633Z,100471.38
2022-08-18T04:39:44.669Z,100459.50
2022-08-18T04:42:13.098Z,100454.84
2022-08-18T04:44:41.857Z,100449.00
2022-08-18T04:47:10.933Z,100458.38
2022-08-18T04:49:39.314Z,100458.56
2022-08-18T04:52:39.716Z,100449.44
2022-08-18T04:55:12.313Z,100406.41
2022-08-18T04:57:42.642Z,100396.00
2022-08-18T05:00:12.684Z,100439.50
2022-08-18T05:02:41.117Z,100439.69
2022-08-18T05:05:10.210Z,100443.66
2022-08-18T05:07:38.469Z,100459.69
2022-08-18T05:10:07.373Z,100456.78
2022-08-18T05:12:37.041Z,100444.94
2022-08-18T05:15:06.708Z,100443.47
2022-08-18T05:17:39.763Z,100465.84
2022-08-18T05:20:10.552Z,100390.50
2022-08-18T05:22:40.876Z,100510.81
2022-08-18T05:25:10.834Z,100525.41
2022-08-18T05:27:43.826Z,100467.56
2022-08-18T05:30:14.669Z,100543.47
2022-08-18T05:32:48.418Z,100523.19
2022-08-18T05:35:23.439Z,100521.38
2022-08-18T05:38:08.028Z,100490.44
2022-08-18T05:40:37.322Z,100528.72
2022-08-18T05:43:08.689Z,100485.72
2022-08-18T05:45:37.268Z,100516.91
2022-08-18T05:48:05.739Z,100518.38
2022-08-18T05:50:37.287Z,100528.19
2022-08-18T05:53:13.424Z,100530.88
2022-08-18T05:56:05.606Z,100547.31
2022-08-18T05:58:40.565Z,100537.97
2022-08-18T06:01:16.085Z,100540.91
2022-08-18T06:03:49.026Z,100539.47
2022-08-18T06:06:21.657Z,100502.50
2022-08-18T06:08:57.738Z,100547.03
2022-08-18T06:11:27.001Z,100543.09
2022-08-18T06:13:59.845Z,100540.84
2022-08-18T06:16:44.717Z,100534.19
2022-08-18T06:19:28.289Z,100534.63
2022-08-18T06:22:04.748Z,100534.19
2022-08-18T06:24:40.611Z,100530.47
2022-08-18T06:27:14.938Z,100508.53
2022-08-18T06:30:04.625Z,100528.63
2022-08-18T06:32:46.890Z,100532.63
2022-08-18T06:35:25.803Z,100538.91
2022-08-18T06:38:28.362Z,100547.25
2022-08-18T06:41:03.118Z,100463.13
2022-08-18T06:43:34.391Z,100548.56
2022-08-18T06:46:09.077Z,100541.91
2022-08-18T06:48:48.217Z,100354.72
2022-08-18T06:51:21.287Z,100522.56
2022-08-18T06:53:56.455Z,100526.31
2022-08-18T06:56:28.989Z,100519.63
2022-08-18T06:59:16.175Z,100433.00
2022-08-18T07:01:48.664Z,100512.34
2022-08-18T07:04:33.889Z,100441.34
2022-08-18T07:07:14.944Z,100514.63
2022-08-18T07:09:43.299Z,100519.22
2022-08-18T07:12:19.936Z,100500.41
2022-08-18T07:14:50.939Z,100391.94
2022-08-18T07:17:43.605Z,100501.38
2022-08-18T07:20:21.609Z,100506.97
2022-08-18T07:22:54.746Z,100505.97
2022-08-18T07:25:26.251Z,100503.50
2022-08-18T07:27:56.827Z,100503.69
2022-08-18T07:30:32.572Z,100501.44
2022-08-18T07:33:15.066Z,100508.13
2022-08-18T07:35:49.287Z,100511.88
2022-08-18T07:38:44.332Z,100521.50
2022-08-18T07:41:20.494Z,100477.03
2022-08-18T07:44:01.261Z,100508.34
2022-08-18T07:46:37.605Z,100465.41
2022-08-18T07:49:07.861Z,100500.19
2022-08-18T07:51:47.861Z,100491.81
2022-08-18T07:54:50.622Z,100495.13
2022-08-18T07:57:30.765Z,100338.84
2022-08-18T08:00:18.652Z,100318.63
2022-08-18T08:03:13.712Z,100484.63
2022-08-18T08:05:52.536Z,100490.84
2022-08-18T08:08:26.463Z,100482.94
2022-08-18T08:11:16.934Z,100497.44
2022-08-18T08:13:57.667Z,100495.97
2022-08-18T08:16:37.441Z,100494.03
2022-08-18T08:19:31.511Z,100330.81
2022-08-18T08:22:17.983Z,100506.53
2022-08-18T08:24:54.798Z,100487.72
2022-08-18T08:27:36.117Z,100492.50
2022-08-18T08:30:08.741Z,100504.16
2022-08-18T08:32:44.466Z,100498.88
2022-08-18T08:35:16.239Z,100460.97
2022-08-18T08:38:38.665Z,100496.75
2022-08-18T08:41:06.797Z,100501.53
2022-08-18T08:43:39.362Z,100355.81
2022-08-18T08:46:14.430Z,100502.94
2022-08-18T08:48:47.197Z,100355.09
2022-08-18T08:51:36.263Z,100506.16
2022-08-18T08:54:12.264Z,100510.72
2022-08-18T08:56:45.778Z,100516.16
2022-08-18T08:59:17.214Z,100373.50
2022-08-18T09:01:53.078Z,100544.00
2022-08-18T09:04:33.009Z,100541.94
2022-08-18T09:07:17.055Z,100514.25
2022-08-18T09:10:08.978Z,100506.16
2022-08-18T09:12:56.242Z,100549.84
2022-08-18T09:15:43.478Z,100554.84
2022-08-18T09:18:28.150Z,100526.34
2022-08-18T09:21:12.463Z,100568.44
2022-08-18T09:23:46.379Z,100571.78
2022-08-18T09:26:39.752Z,100575.13
2022-08-18T09:29:21.950Z,100580.91
2022-08-18T09:31:51.188Z,100577.38
2022-08-18T09:34:40.323Z,100576.31
2022-08-18T09:37:21.466Z,100573.38
2022-08-18T09:40:19.548Z,100579.22
2022-08-18T09:42:58.204Z,100534.19
2022-08-18T09:45:55.594Z,100578.56
2022-08-18T09:48:30.572Z,100583.78
2022-08-18T09:51:33.921Z,100573.28
2022-08-18T09:54:21.565Z,100566.56
2022-08-18T09:57:24.482Z,100566.13
2022-08-18T09:59:57.648Z,100569.00
2022-08-18T10:03:08.578Z,100563.72
2022-08-18T10:05:37.242Z,100564.75
2022-08-18T10:08:42.790Z,100553.59
2022-08-18T10:11:32.254Z,100580.75
2022-08-18T10:14:24.704Z,100419.88
2022-08-18T10:17:23.579Z,100521.97
2022-08-18T10:19:59.213Z,100556.88
2022-08-18T10:22:41.103Z,100551.69
2022-08-18T10:25:22.717Z,100512.00
2022-08-18T10:27:56.647Z,100429.91
2022-08-18T10:34:01.811Z,100533.63
2022-08-18T10:36:43.398Z,100533.09
2022-08-18T10:39:13.718Z,100525.38
2022-08-18T10:41:56.948Z,100494.19
2022-08-18T10:44:30.937Z,100516.44
2022-08-18T10:47:02.181Z,100515.00
2022-08-18T10:49:34.155Z,100524.63
2022-08-18T10:52:29.419Z,100529.38
2022-08-18T10:55:11.335Z,100499.00
2022-08-18T10:58:02.841Z,100398.19
2022-08-18T11:00:49.635Z,100502.09
2022-08-18T11:03:51.603Z,100533.69
2022-08-18T11:06:26.842Z,100534.75
2022-08-18T11:09:03.597Z,100534.97
2022-08-18T11:11:42.087Z,100447.47
2022-08-18T11:14:35.501Z,100501.03
2022-08-18T11:17:14.118Z,100374.34
2022-08-18T11:19:47.465Z,100500.06
2022-08-18T11:22:31.577Z,100533.09
2022-08-18T11:25:03.284Z,100532.94
2022-08-18T11:27:36.466Z,100538.63
2022-08-18T11:30:07.744Z,100539.31
2022-08-18T11:35:35.513Z,100543.13
2022-08-18T11:38:13.634Z,100546.66
2022-08-18T11:43:46.775Z,100555.34
2022-08-18T11:49:24.094Z,100568.38
2022-08-18T11:52:03.327Z,100563.53
2022-08-18T11:54:50.981Z,100567.09
2022-08-18T11:57:30.522Z,100562.09
2022-08-18T12:00:00.418Z,100566.25
2022-08-18T12:02:29.331Z,100568.25
2022-08-18T12:05:08.497Z,100579.16
2022-08-18T12:07:46.321Z,100583.78
2022-08-18T12:10:29.710Z,100577.28
2022-08-18T12:13:00.613Z,100576.81
2022-08-18T12:15:44.203Z,100453.59
2022-08-18T12:18:28.066Z,100590.91
2022-08-18T12:20:58.957Z,100590.91
2022-08-18T12:23:28.103Z,100587.94
2022-08-18T12:26:27.320Z,100587.94
2022-08-18T12:29:01.475Z,100594.22
2022-08-18T12:31:42.043Z,100592.94
2022-08-18T12:34:17.918Z,100593.41
2022-08-18T12:36:55.858Z,100594.47
2022-08-18T12:39:24.977Z,100597.19
2022-08-18T12:41:54.769Z,100596.13
2022-08-18T12:44:23.173Z,100594.47
2022-08-18T12:46:56.191Z,100594.69
2022-08-18T12:49:26.464Z,100595.53
2022-08-18T12:51:55.773Z,100599.81
2022-08-18T12:57:33.282Z,100566.75
2022-08-18T13:00:15.359Z,100599.88
2022-08-18T13:02:48.087Z,100589.81
2022-08-18T13:05:17.653Z,100581.41
2022-08-18T13:07:55.317Z,100586.03
2022-08-18T13:10:45.772Z,100584.59
2022-08-18T13:13:17.280Z,100579.22
2022-08-18T13:15:55.410Z,100586.34
2022-08-18T13:18:28.795Z,100581.13
2022-08-18T13:20:58.353Z,100577.56
2022-08-18T13:23:28.623Z,100580.88
2022-08-18T13:26:01.427Z,100576.50
2022-08-18T13:28:36.138Z,100538.00
2022-08-18T13:31:18.266Z,100565.00
2022-08-18T13:33:56.806Z,100569.38
2022-08-18T13:36:28.882Z,100569.00
2022-08-18T13:38:57.591Z,100565.06
2022-08-18T13:43:57.022Z,100572.19
2022-08-18T13:46:31.290Z,100568.16
2022-08-18T13:49:03.022Z,100566.50
2022-08-18T13:51:32.163Z,100563.78
2022-08-18T13:54:30.449Z,100565.22
2022-08-18T13:56:51.914Z,100561.97
2022-08-18T13:59:23.856Z,100565.19
2022-08-18T14:01:53.676Z,100568.50
2022-08-18T14:04:27.745Z,100563.06
2022-08-18T14:06:59.877Z,100578.81
2022-08-18T14:09:36.419Z,100570.50
2022-08-18T14:12:15.677Z,100586.53
2022-08-18T14:14:53.708Z,100570.25
2022-08-18T14:17:23.464Z,100575.94
2022-08-18T14:20:21.207Z,100568.81
2022-08-18T14:23:09.652Z,100573.88
2022-08-18T14:25:56.032Z,100575.78
2022-08-18T14:28:24.665Z,100577.44
2022-08-18T14:30:55.722Z,100582.66
2022-08-18T14:33:51.114Z,100559.81
2022-08-18T14:36:18.117Z,100575.19
2022-08-18T14:38:46.794Z,100592.13
2022-08-18T14:41:20.502Z,100578.28
2022-08-18T14:44:11.499Z,100573.66
2022-08-18T14:46:54.143Z,100578.28
2022-08-18T14:49:28.671Z,100568.81
2022-08-18T14:51:59.052Z,100567.91
2022-08-18T14:54:28.293Z,100556.09
2022-08-18T14:56:57.244Z,100557.91
2022-08-18T14:59:28.544Z,100553.69
2022-08-18T15:01:58.233Z,100556.06
2022-08-18T15:04:27.752Z,100548.63
2022-08-18T15:06:57.493Z,100547.47
2022-08-18T15:09:27.250Z,100542.78
2022-08-18T15:11:58.522Z,100536.72
2022-08-18T15:14:33.135Z,100530.75
2022-08-18T15:17:13.308Z,100529.38
2022-08-18T15:20:00.022Z,100527.09
2022-08-18T15:22:47.814Z,100528.44
2022-08-18T15:25:33.829Z,100524.16
2022-08-18T15:28:02.448Z,100487.13
2022-08-18T15:30:32.277Z,100515.38
2022-08-18T15:33:03.207Z,100515.63
2022-08-18T15:35:32.529Z,100519.88
2022-08-18T15:38:05.071Z,100521.44
2022-08-18T15:40:41.241Z,100524.88
2022-08-18T15:43:10.586Z,100521.19
2022-08-18T15:45:56.538Z,100539.09
2022-08-18T15:48:29.704Z,100514.28
2022-08-18T15:51:08.071Z,100531.13
2022-08-18T15:53:44.905Z,100518.41
2022-08-18T15:56:16.319Z,100518.25
2022-08-18T15:58:49.540Z,100521.91
2022-08-18T16:01:32.410Z,100519.28
2022-08-18T16:04:03.314Z,100517.75
2022-08-18T16:06:32.986Z,100518.72
2022-08-18T16:09:02.075Z,100509.69
2022-08-18T16:11:30.993Z,100514.00
2022-08-18T16:14:00.092Z,100522.06
2022-08-18T16:16:29.116Z,100513.22
2022-08-18T16:19:07.742Z,100504.03
2022-08-18T16:21:40.438Z,100501.72
2022-08-18T16:24:09.941Z,100482.72
2022-08-18T16:26:38.310Z,100500.00
2022-08-18T16:29:07.650Z,100500.91
2022-08-18T16:31:36.524Z,100492.72
2022-08-18T16:34:06.713Z,100498.84
2022-08-18T16:36:35.541Z,100500.03
2022-08-18T16:39:03.952Z,100498.13
2022-08-18T16:41:35.401Z,100494.56
2022-08-18T16:44:03.674Z,100486.94
2022-08-18T16:46:32.238Z,100483.13
2022-08-18T16:49:01.281Z,100478.22
2022-08-18T16:51:31.575Z,100482.63
2022-08-18T16:53:59.784Z,100475.00
2022-08-18T16:56:30.551Z,100335.59
2022-08-18T16:59:16.585Z,100482.94
2022-08-18T17:02:02.556Z,100476.66
2022-08-18T17:04:34.381Z,100480.22
2022-08-18T17:07:06.169Z,100476.06
2022-08-18T17:09:36.029Z,100477.13
2022-08-18T17:12:05.335Z,100485.84
2022-08-18T17:14:36.955Z,100426.13
2022-08-18T17:17:07.722Z,100436.31
2022-08-18T17:19:37.680Z,100485.50
2022-08-18T17:22:08.499Z,100502.19
2022-08-18T17:24:37.828Z,100503.25
2022-08-18T17:27:26.476Z,100501.00
2022-08-18T17:30:05.890Z,100508.31
2022-08-18T17:32:42.973Z,100511.53
2022-08-18T17:35:15.898Z,100511.44
2022-08-18T17:37:52.244Z,100514.91
2022-08-18T17:40:28.631Z,100514.81
2022-08-18T17:42:59.889Z,100511.81
2022-08-18T17:45:36.112Z,100518.78
2022-08-18T17:48:12.645Z,100525.00
2022-08-18T17:51:03.842Z,100538.00
2022-08-18T17:53:36.628Z,100522.28
2022-08-18T17:56:13.335Z,100547.78
2022-08-18T17:58:48.680Z,100554.47
2022-08-18T18:01:19.678Z,100555.78
2022-08-18T18:03:51.227Z,100565.28
2022-08-18T18:06:32.633Z,100558.63
2022-08-18T18:09:06.976Z,100563.97
2022-08-18T18:11:41.578Z,100564.16
2022-08-18T18:14:35.103Z,100555.34
2022-08-18T18:17:12.741Z,100545.03
2022-08-18T18:19:46.425Z,100570.81
2022-08-18T18:22:21.673Z,100586.25
2022-08-18T18:24:55.054Z,100588.66
2022-08-18T18:27:31.557Z,100468.97
2022-08-18T18:30:04.789Z,100565.25
2022-08-18T18:32:39.157Z,100583.66
2022-08-18T18:35:17.222Z,100476.88
2022-08-18T18:37:53.464Z,100597.41
2022-08-18T18:40:39.437Z,100592.41
2022-08-18T18:43:29.121Z,100599.16
2022-08-18T18:46:23.203Z,100616.72
2022-08-18T18:49:05.069Z,100592.13
2022-08-18T18:51:40.821Z,100627.25
2022-08-18T18:54:23.820Z,100630.72
2022-08-18T18:56:57.918Z,100645.91
2022-08-18T18:59:47.409Z,100645.16
2022-08-18T19:02:33.484Z,100591.75
2022-08-18T19:05:16.415Z,100655.94
2022-08-18T19:08:05.868Z,100652.81
2022-08-18T19:10:42.819Z,100649.72
2022-08-18T19:13:26.856Z,100657.09
2022-08-18T19:16:23.535Z,100673.69
2022-08-18T19:18:57.911Z,100670.88
2022-08-18T19:22:03.969Z,100692.50
2022-08-18T19:24:40.460Z,100659.66
2022-08-18T19:27:23.311Z,100694.31
2022-08-18T19:29:57.290Z,100668.56
2022-08-18T19:32:33.976Z,100538.94
2022-08-18T19:35:04.454Z,100703.03
2022-08-18T19:37:54.034Z,100714.03
2022-08-18T19:40:28.655Z,100683.72
2022-08-18T19:43:04.697Z,100645.06
2022-08-18T19:45:43.413Z,100676.63
2022-08-18T19:48:20.098Z,100718.94
2022-08-18T19:50:54.268Z,100561.31
2022-08-18T19:53:54.747Z,100715.16
2022-08-18T19:56:45.309Z,100715.34
2022-08-18T19:59:55.231Z,100694.16
2022-08-18T20:02:36.913Z,100565.88
2022-08-18T20:05:20.575Z,100731.78
2022-08-18T20:08:11.358Z,100694.69
2022-08-18T20:11:08.596Z,100693.41
2022-08-18T20:13:43.235Z,100738.47
2022-08-18T20:16:28.545Z,100738.00
2022-08-18T20:20:05.443Z,100735.50
2022-08-18T20:22:42.342Z,100730.91
2022-08-18T20:25:41.561Z,100579.88
2022-08-18T20:28:33.683Z,100750.41
2022-08-18T20:31:13.193Z,100743.56
2022-08-18T20:33:47.151Z,100729.47
2022-08-18T20:36:27.026Z,100753.41
2022-08-18T20:38:57.772Z,100760.75
2022-08-18T20:41:32.634Z,100758.41
2022-08-18T20:44:28.875Z,100756.31
2022-08-18T20:47:14.153Z,100760.31
2022-08-18T20:49:58.470Z,100754.69
2022-08-18T20:52:38.750Z,100615.72
2022-08-18T20:55:17.989Z,100600.28
2022-08-18T20:57:46.711Z,100770.63
2022-08-18T21:00:26.722Z,100783.81
2022-08-18T21:02:58.963Z,100778.34
2022-08-18T21:05:29.512Z,100639.91
2022-08-18T21:08:13.576Z,100787.44
2022-08-18T21:10:50.478Z,100766.78
2022-08-18T21:13:30.802Z,100776.81
2022-08-18T21:15:59.943Z,100785.19
2022-08-18T21:18:29.484Z,100791.69
2022-08-18T21:21:00.213Z,100799.84
2022-08-18T21:23:34.837Z,100792.53
2022-08-18T21:26:08.048Z,100795.03
2022-08-18T21:28:39.447Z,100786.66
2022-08-18T21:31:42.727Z,100793.97
2022-08-18T21:34:18.454Z,100759.78
2022-08-18T21:36:52.773Z,100783.53
2022-08-18T21:39:23.560Z,100780.81
2022-08-18T21:41:54.732Z,100786.47
2022-08-18T21:44:25.565Z,100761.88
2022-08-18T21:47:05.813Z,100757.31
2022-08-18T21:49:35.057Z,100809.09
2022-08-18T21:52:03.336Z,100809.69
2022-08-18T21:54:35.638Z,100812.00
2022-08-18T21:57:24.747Z,100813.88
2022-08-18T22:00:12.998Z,100807.81
2022-08-18T22:02:41.358Z,100813.25
2022-08-18T22:05:11.325Z,100809.47
2022-08-18T22:07:47.979Z,100814.94
2022-08-18T22:10:47.946Z,100808.25
2022-08-18T22:13:39.509Z,100818.31
2022-08-18T22:16:30.354Z,100821.06
2022-08-18T22:19:12.826Z,100812.28
2022-08-18T22:21:47.096Z,100815.63
2022-08-18T22:24:20.477Z,100817.50
2022-08-18T22:27:04.427Z,100793.13
2022-08-18T22:29:45.540Z,100800.25
2022-08-18T22:32:15.235Z,100811.53
2022-08-18T22:34:44.047Z,100820.97
2022-08-18T22:37:14.350Z,100661.34
2022-08-18T22:39:47.235Z,100831.03
2022-08-18T22:42:18.900Z,100827.47
2022-08-18T22:44:47.362Z,100829.34
2022-08-18T22:47:16.286Z,100823.72
2022-08-18T22:49:45.405Z,100828.09
2022-08-18T22:52:19.435Z,100841.50
2022-08-18T22:54:49.574Z,100826.44
2022-08-18T22:57:23.635Z,100651.38
2022-08-18T22:59:52.371Z,100823.78
2022-08-18T23:02:22.114Z,100829.81
2022-08-18T23:04:50.628Z,100821.44
2022-08-18T23:07:23.028Z,100813.28
2022-08-18T23:09:51.354Z,100807.16
2022-08-18T23:12:21.099Z,100814.50
2022-08-18T23:14:49.757Z,100818.91
2022-08-18T23:17:18.320Z,100816.78
2022-08-18T23:19:46.952Z,100808.41
2022-08-18T23:22:15.835Z,100795.66
2022-08-18T23:24:44.175Z,100805.44
2022-08-18T23:27:12.433Z,100813.19
2022-08-18T23:29:42.220Z,100808.31
2022-08-18T23:32:10.515Z,100805.38
2022-08-18T23:34:38.840Z,100806.84
2022-08-18T23:37:09.687Z,100806.19
2022-08-18T23:39:39.675Z,100810.97
2022-08-18T23:42:10.325Z,100806.13
2022-08-18T23:44:38.970Z,100812.63
2022-08-18T23:47:08.760Z,100823.09
2022-08-18T23:49:38.404Z,100817.03
2022-08-18T23:52:06.909Z,100812.63
2022-08-18T23:54:36.444Z,100823.53
2022-08-18T23:57:04.791Z,100819.13
2022-08-18T23:59:33.119Z,100814.13
